sensor_id;sensor_type;location;lat;lon;timestamp;pressure;altitude;pressure_sealevel;temperature;humidity
70909;BME280;58554;52.006;5.926;2022-12-08T00:01:54;100206.94;;;6.40;67.25
70909;BME280;58554;52.006;5.926;2022-12-08T00:04:21;100199.28;;;6.36;67.03
70909;BME280;58554;52.006;5.926;2022-12-08T00:06:48;100186.22;;;6.34;67.06
70909;BME280;58554;52.006;5.926;2022-12-08T00:09:18;100182.81;;;6.32;67.18
70909;BME280;58554;52.006;5.926;2022-12-08T00:11:46;100189.84;;;6.32;67.30
70909;BME280;58554;52.006;5.926;2022-12-08T00:14:13;100179.41;;;6.30;67.11
70909;BME280;58554;52.006;5.926;2022-12-08T00:16:40;100176.03;;;6.28;67.11
70909;BME280;58554;52.006;5.926;2022-12-08T00:19:09;100172.44;;;6.29;67.31
70909;BME280;58554;52.006;5.926;2022-12-08T00:21:36;100164.50;;;6.30;67.42
70909;BME280;58554;52.006;5.926;2022-12-08T00:24:03;100171.53;;;6.30;67.31
70909;BME280;58554;52.006;5.926;2022-12-08T00:26:30;100164.69;;;6.27;67.16
70909;BME280;58554;52.006;5.926;2022-12-08T00:28:56;100168.28;;;6.25;67.09
70909;BME280;58554;52.006;5.926;2022-12-08T00:31:23;100155.31;;;6.22;67.22
70909;BME280;58554;52.006;5.926;2022-12-08T00:33:49;100146.66;;;6.20;67.37
70909;BME280;58554;52.006;5.926;2022-12-08T00:36:18;100151.97;;;6.18;67.43
70909;BME280;58554;52.006;5.926;2022-12-08T00:38:45;100158.00;;;6.20;67.66
70909;BME280;58554;52.006;5.926;2022-12-08T00:41:13;100145.75;;;6.21;67.49
70909;BME280;58554;52.006;5.926;2022-12-08T00:43:42;100140.50;;;6.21;67.51
70909;BME280;58554;52.006;5.926;2022-12-08T00:46:08;100136.94;;;6.22;67.47
70909;BME280;58554;52.006;5.926;2022-12-08T00:48:35;100140.28;;;6.25;67.63
70909;BME280;58554;52.006;5.926;2022-12-08T00:51:02;100131.44;;;6.26;67.60
70909;BME280;58554;52.006;5.926;2022-12-08T00:53:32;100127.91;;;6.27;67.57
70909;BME280;58554;52.006;5.926;2022-12-08T00:55:58;100132.28;;;6.27;67.49
70909;BME280;58554;52.006;5.926;2022-12-08T00:58:24;100122.88;;;6.23;67.49
70909;BME280;58554;52.006;5.926;2022-12-08T01:00:51;100135.25;;;6.21;67.55
70909;BME280;58554;52.006;5.926;2022-12-08T01:03:17;100135.25;;;6.21;67.54
70909;BME280;58554;52.006;5.926;2022-12-08T01:05:44;100135.25;;;6.21;67.74
70909;BME280;58554;52.006;5.926;2022-12-08T01:08:10;100129.06;;;6.22;67.88
70909;BME280;58554;52.006;5.926;2022-12-08T01:10:39;100122.88;;;6.23;67.64
70909;BME280;58554;52.006;5.926;2022-12-08T01:13:06;100122.88;;;6.23;67.85
70909;BME280;58554;52.006;5.926;2022-12-08T01:15:32;100118.56;;;6.22;67.89
70909;BME280;58554;52.006;5.926;2022-12-08T01:17:59;100122.13;;;6.21;67.68
70909;BME280;58554;52.006;5.926;2022-12-08T01:20:26;100132.63;;;6.21;67.82
70909;BME280;58554;52.006;5.926;2022-12-08T01:22:54;100131.84;;;6.19;67.64
70909;BME280;58554;52.006;5.926;2022-12-08T01:25:20;100124.88;;;6.18;67.82
70909;BME280;58554;52.006;5.926;2022-12-08T01:27:50;100128.44;;;6.17;67.83
70909;BME280;58554;52.006;5.926;2022-12-08T01:30:17;100117.00;;;6.18;68.14
70909;BME280;58554;52.006;5.926;2022-12-08T01:32:44;100104.72;;;6.18;68.13
70909;BME280;58554;52.006;5.926;2022-12-08T01:35:10;100113.31;;;6.22;67.97
70909;BME280;58554;52.006;5.926;2022-12-08T01:37:37;100107.28;;;6.20;67.91
70909;BME280;58554;52.006;5.926;2022-12-08T01:40:06;100112.78;;;6.15;68.13
70909;BME280;58554;52.006;5.926;2022-12-08T01:42:33;100121.56;;;6.14;68.27
70909;BME280;58554;52.006;5.926;2022-12-08T01:45:04;100114.63;;;6.13;68.28
70909;BME280;58554;52.006;5.926;2022-12-08T01:47:36;100111.84;;;6.16;68.37
70909;BME280;58554;52.006;5.926;2022-12-08T01:50:09;100110.84;;;6.19;68.25
70909;BME280;58554;52.006;5.926;2022-12-08T01:52:41;100113.63;;;6.16;68.15
70909;BME280;58554;52.006;5.926;2022-12-08T01:55:18;100108.53;;;6.13;68.33
70909;BME280;58554;52.006;5.926;2022-12-08T01:57:50;100102.56;;;6.09;68.45
70909;BME280;58554;52.006;5.926;2022-12-08T02:00:23;100096.56;;;6.07;68.67
70909;BME280;58554;52.006;5.926;2022-12-08T02:02:53;100093.84;;;6.08;68.63
70909;BME280;58554;52.006;5.926;2022-12-08T02:05:25;100089.44;;;6.09;68.79
70909;BME280;58554;52.006;5.926;2022-12-08T02:07:54;100088.50;;;6.10;68.48
70909;BME280;58554;52.006;5.926;2022-12-08T02:10:24;100085.69;;;6.15;68.64
70909;BME280;58554;52.006;5.926;2022-12-08T02:12:54;100089.91;;;6.17;68.75
70909;BME280;58554;52.006;5.926;2022-12-08T02:15:32;100100.25;;;6.20;68.91
70909;BME280;58554;52.006;5.926;2022-12-08T02:18:17;100097.38;;;6.25;68.62
70909;BME280;58554;52.006;5.926;2022-12-08T02:21:01;100095.41;;;6.30;68.54
70909;BME280;58554;52.006;5.926;2022-12-08T02:23:37;100082.97;;;6.34;68.61
70909;BME280;58554;52.006;5.926;2022-12-08T02:26:31;100087.28;;;6.35;68.40
70909;BME280;58554;52.006;5.926;2022-12-08T02:29:51;100079.41;;;6.35;68.30
70909;BME280;58554;52.006;5.926;2022-12-08T02:36:10;100078.41;;;6.37;68.44
70909;BME280;58554;52.006;5.926;2022-12-08T02:38:51;100074.22;;;6.33;68.52
70909;BME280;58554;52.006;5.926;2022-12-08T02:41:38;100066.34;;;6.33;68.40
70909;BME280;58554;52.006;5.926;2022-12-08T02:44:16;100068.84;;;6.36;68.41
70909;BME280;58554;52.006;5.926;2022-12-08T02:46:52;100061.88;;;6.35;68.40
70909;BME280;58554;52.006;5.926;2022-12-08T02:49:27;100061.72;;;6.38;68.36
70909;BME280;58554;52.006;5.926;2022-12-08T02:52:07;100057.06;;;6.43;68.35
70909;BME280;58554;52.006;5.926;2022-12-08T02:54:51;100050.41;;;6.54;68.38
70909;BME280;58554;52.006;5.926;2022-12-08T02:57:27;100055.97;;;6.65;68.17
70909;BME280;58554;52.006;5.926;2022-12-08T03:00:05;100054.97;;;6.67;68.04
70909;BME280;58554;52.006;5.926;2022-12-08T03:02:55;100040.28;;;6.63;67.94
70909;BME280;58554;52.006;5.926;2022-12-08T03:05:48;100031.78;;;6.58;67.93
70909;BME280;58554;52.006;5.926;2022-12-08T03:08:30;100034.41;;;6.58;68.08
70909;BME280;58554;52.006;5.926;2022-12-08T03:11:03;100023.81;;;6.60;67.98
70909;BME280;58554;52.006;5.926;2022-12-08T03:13:40;100027.28;;;6.60;68.05
70909;BME280;58554;52.006;5.926;2022-12-08T03:16:14;100017.81;;;6.58;68.00
70909;BME280;58554;52.006;5.926;2022-12-08T03:18:48;100015.09;;;6.59;68.06
70909;BME280;58554;52.006;5.926;2022-12-08T03:21:20;100008.16;;;6.58;67.94
70909;BME280;58554;52.006;5.926;2022-12-08T03:23:53;100006.72;;;6.53;68.19
70909;BME280;58554;52.006;5.926;2022-12-08T03:26:27;100005.00;;;6.52;68.17
70909;BME280;58554;52.006;5.926;2022-12-08T03:28:58;99997.22;;;6.50;68.25
70909;BME280;58554;52.006;5.926;2022-12-08T03:31:27;99994.81;;;6.45;68.36
70909;BME280;58554;52.006;5.926;2022-12-08T03:33:59;99999.28;;;6.43;68.24
70909;BME280;58554;52.006;5.926;2022-12-08T03:36:30;99996.84;;;6.40;68.31
70909;BME280;58554;52.006;5.926;2022-12-08T03:39:00;99996.78;;;6.42;68.54
70909;BME280;58554;52.006;5.926;2022-12-08T03:41:26;99993.13;;;6.44;68.59
70909;BME280;58554;52.006;5.926;2022-12-08T03:43:55;99989.66;;;6.44;68.50
70909;BME280;58554;52.006;5.926;2022-12-08T03:46:26;99988.66;;;6.46;68.50
70909;BME280;58554;52.006;5.926;2022-12-08T03:48:55;99980.59;;;6.49;68.41
70909;BME280;58554;52.006;5.926;2022-12-08T03:51:23;99977.63;;;6.56;68.32
70909;BME280;58554;52.006;5.926;2022-12-08T03:53:50;99980.72;;;6.64;68.59
70909;BME280;58554;52.006;5.926;2022-12-08T03:56:24;99971.59;;;6.71;68.33
70909;BME280;58554;52.006;5.926;2022-12-08T03:58:53;99974.88;;;6.75;68.25
70909;BME280;58554;52.006;5.926;2022-12-08T04:01:20;99978.03;;;6.81;68.15
70909;BME280;58554;52.006;5.926;2022-12-08T04:03:47;99979.38;;;6.88;68.04
70909;BME280;58554;52.006;5.926;2022-12-08T04:06:15;99984.47;;;6.91;67.99
70909;BME280;58554;52.006;5.926;2022-12-08T04:08:43;99969.38;;;6.95;67.75
70909;BME280;58554;52.006;5.926;2022-12-08T04:11:10;99971.16;;;6.95;67.72
70909;BME280;58554;52.006;5.926;2022-12-08T04:13:42;99968.47;;;6.96;67.80
70909;BME280;58554;52.006;5.926;2022-12-08T04:16:14;99970.00;;;7.00;67.66
70909;BME280;58554;52.006;5.926;2022-12-08T04:18:42;99968.88;;;7.04;67.50
70909;BME280;58554;52.006;5.926;2022-12-08T04:21:09;99964.28;;;7.08;67.29
70909;BME280;58554;52.006;5.926;2022-12-08T04:23:36;99968.69;;;7.07;67.15
70909;BME280;58554;52.006;5.926;2022-12-08T04:26:03;99965.16;;;7.08;67.27
70909;BME280;58554;52.006;5.926;2022-12-08T04:28:31;99962.34;;;7.11;67.02
70909;BME280;58554;52.006;5.926;2022-12-08T04:31:01;99956.31;;;7.09;66.88
70909;BME280;58554;52.006;5.926;2022-12-08T04:33:28;99953.88;;;7.06;66.88
70909;BME280;58554;52.006;5.926;2022-12-08T04:35:55;99955.75;;;7.04;67.18
70909;BME280;58554;52.006;5.926;2022-12-08T04:38:22;99953.88;;;7.06;67.01
70909;BME280;58554;52.006;5.926;2022-12-08T04:40:49;99956.31;;;7.09;66.85
70909;BME280;58554;52.006;5.926;2022-12-08T04:43:16;99953.69;;;7.09;66.85
70909;BME280;58554;52.006;5.926;2022-12-08T04:45:42;99956.31;;;7.09;66.89
70909;BME280;58554;52.006;5.926;2022-12-08T04:48:12;99950.22;;;7.09;66.72
70909;BME280;58554;52.006;5.926;2022-12-08T04:50:40;99957.09;;;7.11;66.61
70909;BME280;58554;52.006;5.926;2022-12-08T04:53:09;99955.47;;;7.09;66.49
70909;BME280;58554;52.006;5.926;2022-12-08T04:55:39;99957.34;;;7.07;66.49
70909;BME280;58554;52.006;5.926;2022-12-08T04:58:06;99951.13;;;7.08;66.51
70909;BME280;58554;52.006;5.926;2022-12-08T05:00:36;99950.16;;;7.10;66.59
70909;BME280;58554;52.006;5.926;2022-12-08T05:03:03;99951.66;;;7.15;66.64
70909;BME280;58554;52.006;5.926;2022-12-08T05:05:32;99953.28;;;7.17;66.39
70909;BME280;58554;52.006;5.926;2022-12-08T05:07:58;99948.94;;;7.16;66.50
70909;BME280;58554;52.006;5.926;2022-12-08T05:10:25;99942.56;;;7.20;66.48
70909;BME280;58554;52.006;5.926;2022-12-08T05:12:52;99942.50;;;7.22;66.29
70909;BME280;58554;52.006;5.926;2022-12-08T05:15:18;99944.00;;;7.26;66.36
70909;BME280;58554;52.006;5.926;2022-12-08T05:17:45;99943.16;;;7.25;66.13
70909;BME280;58554;52.006;5.926;2022-12-08T05:20:12;99937.91;;;7.25;66.08
70909;BME280;58554;52.006;5.926;2022-12-08T05:22:41;99934.53;;;7.23;66.15
70909;BME280;58554;52.006;5.926;2022-12-08T05:25:08;99937.16;;;7.23;66.33
70909;BME280;58554;52.006;5.926;2022-12-08T05:27:35;99928.22;;;7.26;66.35
70909;BME280;58554;52.006;5.926;2022-12-08T05:30:04;99936.88;;;7.28;66.28
70909;BME280;58554;52.006;5.926;2022-12-08T05:32:32;99933.22;;;7.30;66.25
70909;BME280;58554;52.006;5.926;2022-12-08T05:34:58;99932.47;;;7.28;66.07
70909;BME280;58554;52.006;5.926;2022-12-08T05:37:24;99921.94;;;7.28;66.29
70909;BME280;58554;52.006;5.926;2022-12-08T05:39:54;99935.00;;;7.30;66.19
70909;BME280;58554;52.006;5.926;2022-12-08T05:42:20;99923.47;;;7.32;66.31
70909;BME280;58554;52.006;5.926;2022-12-08T05:44:46;99915.56;;;7.32;66.18
70909;BME280;58554;52.006;5.926;2022-12-08T05:47:13;99919.16;;;7.31;66.19
70909;BME280;58554;52.006;5.926;2022-12-08T05:49:39;99920.16;;;7.29;65.81
70909;BME280;58554;52.006;5.926;2022-12-08T05:52:06;99924.09;;;7.22;66.02
70909;BME280;58554;52.006;5.926;2022-12-08T05:54:32;99925.13;;;7.19;66.22
70909;BME280;58554;52.006;5.926;2022-12-08T05:57:02;99928.78;;;7.17;66.19
70909;BME280;58554;52.006;5.926;2022-12-08T05:59:28;99927.06;;;7.16;66.24
70909;BME280;58554;52.006;5.926;2022-12-08T06:01:55;99924.50;;;7.14;65.93
70909;BME280;58554;52.006;5.926;2022-12-08T06:04:21;99926.22;;;7.15;66.12
70909;BME280;58554;52.006;5.926;2022-12-08T06:06:48;99930.53;;;7.16;66.06
70909;BME280;58554;52.006;5.926;2022-12-08T06:09:15;99926.22;;;7.15;66.14
70909;BME280;58554;52.006;5.926;2022-12-08T06:11:41;99923.50;;;7.17;65.83
70909;BME280;58554;52.006;5.926;2022-12-08T06:14:12;99911.28;;;7.16;65.85
70909;BME280;58554;52.006;5.926;2022-12-08T06:16:39;99920.00;;;7.16;65.86
70909;BME280;58554;52.006;5.926;2022-12-08T06:19:06;99919.94;;;7.18;65.65
70909;BME280;58554;52.006;5.926;2022-12-08T06:21:32;99911.19;;;7.17;65.57
70909;BME280;58554;52.006;5.926;2022-12-08T06:23:59;99920.88;;;7.17;65.77
70909;BME280;58554;52.006;5.926;2022-12-08T06:26:26;99925.19;;;7.18;65.67
70909;BME280;58554;52.006;5.926;2022-12-08T06:28:52;99914.59;;;7.19;65.91
70909;BME280;58554;52.006;5.926;2022-12-08T06:31:23;99917.97;;;7.21;65.77
70909;BME280;58554;52.006;5.926;2022-12-08T06:33:53;99923.13;;;7.23;65.66
70909;BME280;58554;52.006;5.926;2022-12-08T06:36:22;99928.38;;;7.23;65.52
70909;BME280;58554;52.006;5.926;2022-12-08T06:38:51;99920.63;;;7.21;65.31
70909;BME280;58554;52.006;5.926;2022-12-08T06:41:18;99919.09;;;7.17;65.50
70909;BME280;58554;52.006;5.926;2022-12-08T06:43:44;99924.34;;;7.17;65.60
70909;BME280;58554;52.006;5.926;2022-12-08T06:46:14;99916.38;;;7.19;65.37
70909;BME280;58554;52.006;5.926;2022-12-08T06:48:45;99925.19;;;7.18;65.34
70909;BME280;58554;52.006;5.926;2022-12-08T06:51:15;99919.09;;;7.17;65.31
70909;BME280;58554;52.006;5.926;2022-12-08T06:53:45;99920.28;;;7.11;65.25
70909;BME280;58554;52.006;5.926;2022-12-08T06:56:14;99923.09;;;7.08;65.26
70909;BME280;58554;52.006;5.926;2022-12-08T06:58:42;99919.78;;;7.05;65.32
70909;BME280;58554;52.006;5.926;2022-12-08T07:01:10;99925.03;;;7.05;65.06
70909;BME280;58554;52.006;5.926;2022-12-08T07:03:39;99927.94;;;7.00;65.30
70909;BME280;58554;52.006;5.926;2022-12-08T07:06:13;99935.13;;;6.97;65.23
70909;BME280;58554;52.006;5.926;2022-12-08T07:08:43;99938.69;;;6.96;65.39
70909;BME280;58554;52.006;5.926;2022-12-08T07:11:10;99936.81;;;6.98;65.38
70909;BME280;58554;52.006;5.926;2022-12-08T07:13:37;99930.63;;;6.99;65.42
70909;BME280;58554;52.006;5.926;2022-12-08T07:16:06;99935.91;;;6.99;65.28
70909;BME280;58554;52.006;5.926;2022-12-08T07:18:35;99936.75;;;6.99;65.32
70909;BME280;58554;52.006;5.926;2022-12-08T07:21:06;99938.44;;;7.00;65.22
70909;BME280;58554;52.006;5.926;2022-12-08T07:23:37;99937.56;;;7.00;65.14
70909;BME280;58554;52.006;5.926;2022-12-08T07:26:09;99938.34;;;7.02;65.34
70909;BME280;58554;52.006;5.926;2022-12-08T07:28:37;99933.09;;;7.02;65.12
70909;BME280;58554;52.006;5.926;2022-12-08T07:31:07;99938.19;;;7.05;65.18
70909;BME280;58554;52.006;5.926;2022-12-08T07:33:43;99933.84;;;7.04;65.02
70909;BME280;58554;52.006;5.926;2022-12-08T07:36:13;99927.06;;;7.00;64.93
70909;BME280;58554;52.006;5.926;2022-12-08T07:38:39;99930.97;;;6.93;64.87
70909;BME280;58554;52.006;5.926;2022-12-08T07:41:11;99931.31;;;6.86;64.71
70909;BME280;58554;52.006;5.926;2022-12-08T07:43:39;99929.38;;;6.74;64.61
70909;BME280;58554;52.006;5.926;2022-12-08T07:46:07;99929.88;;;6.65;64.83
70909;BME280;58554;52.006;5.926;2022-12-08T07:48:36;99926.06;;;6.55;64.84
70909;BME280;58554;52.006;5.926;2022-12-08T07:51:03;99930.03;;;6.46;64.80
70909;BME280;58554;52.006;5.926;2022-12-08T07:53:33;99929.81;;;6.33;64.87
70909;BME280;58554;52.006;5.926;2022-12-08T07:56:00;99929.63;;;6.20;64.95
70909;BME280;58554;52.006;5.926;2022-12-08T07:58:30;99929.50;;;6.06;65.05
70909;BME280;58554;52.006;5.926;2022-12-08T08:00:57;99932.75;;;5.94;65.42
70909;BME280;58554;52.006;5.926;2022-12-08T08:03:23;99930.78;;;5.81;65.45
70909;BME280;58554;52.006;5.926;2022-12-08T08:05:50;99928.69;;;5.71;65.44
70909;BME280;58554;52.006;5.926;2022-12-08T08:08:17;99932.69;;;5.60;65.71
70909;BME280;58554;52.006;5.926;2022-12-08T08:10:47;99930.53;;;5.51;65.87
70909;BME280;58554;52.006;5.926;2022-12-08T08:13:13;99927.50;;;5.41;66.09
70909;BME280;58554;52.006;5.926;2022-12-08T08:15:40;99928.88;;;5.31;66.14
70909;BME280;58554;52.006;5.926;2022-12-08T08:18:06;99931.13;;;5.21;66.18
70909;BME280;58554;52.006;5.926;2022-12-08T08:20:33;99923.63;;;5.14;66.43
70909;BME280;58554;52.006;5.926;2022-12-08T08:22:59;99922.31;;;5.05;66.59
70909;BME280;58554;52.006;5.926;2022-12-08T08:25:25;99932.25;;;4.98;66.74
70909;BME280;58554;52.006;5.926;2022-12-08T08:27:56;99936.88;;;4.92;66.85
70909;BME280;58554;52.006;5.926;2022-12-08T08:30:22;99932.78;;;4.86;66.93
70909;BME280;58554;52.006;5.926;2022-12-08T08:32:49;99944.25;;;4.83;67.15
70909;BME280;58554;52.006;5.926;2022-12-08T08:35:16;99934.75;;;4.81;67.02
70909;BME280;58554;52.006;5.926;2022-12-08T08:37:43;99934.06;;;4.77;67.21
70909;BME280;58554;52.006;5.926;2022-12-08T08:40:11;99939.44;;;4.74;67.47
70909;BME280;58554;52.006;5.926;2022-12-08T08:42:38;99953.53;;;4.72;67.43
70909;BME280;58554;52.006;5.926;2022-12-08T08:45:08;99949.28;;;4.69;67.47
70909;BME280;58554;52.006;5.926;2022-12-08T08:47:35;99948.50;;;4.67;67.77
70909;BME280;58554;52.006;5.926;2022-12-08T08:50:02;99948.56;;;4.65;67.83
70909;BME280;58554;52.006;5.926;2022-12-08T08:52:30;99943.41;;;4.64;67.83
70909;BME280;58554;52.006;5.926;2022-12-08T08:54:56;99940.78;;;4.64;67.96
70909;BME280;58554;52.006;5.926;2022-12-08T08:57:23;99946.00;;;4.64;68.00
70909;BME280;58554;52.006;5.926;2022-12-08T08:59:49;99942.63;;;4.62;68.02
70909;BME280;58554;52.006;5.926;2022-12-08T09:02:19;99945.31;;;4.60;68.07
70909;BME280;58554;52.006;5.926;2022-12-08T09:04:46;99938.38;;;4.59;68.16
70909;BME280;58554;52.006;5.926;2022-12-08T09:07:14;99937.59;;;4.57;68.28
70909;BME280;58554;52.006;5.926;2022-12-08T09:09:41;99938.53;;;4.56;68.31
70909;BME280;58554;52.006;5.926;2022-12-08T09:12:09;99935.25;;;4.51;68.54
70909;BME280;58554;52.006;5.926;2022-12-08T09:14:37;99941.50;;;4.48;68.48
70909;BME280;58554;52.006;5.926;2022-12-08T09:17:05;99958.03;;;4.49;68.49
70909;BME280;58554;52.006;5.926;2022-12-08T09:19:35;99958.03;;;4.49;68.72
70909;BME280;58554;52.006;5.926;2022-12-08T09:22:03;99951.13;;;4.48;68.84
70909;BME280;58554;52.006;5.926;2022-12-08T09:24:31;99939.72;;;4.49;68.75
70909;BME280;58554;52.006;5.926;2022-12-08T09:26:57;99958.88;;;4.50;68.92
70909;BME280;58554;52.006;5.926;2022-12-08T09:29:24;99948.41;;;4.50;68.88
70909;BME280;58554;52.006;5.926;2022-12-08T09:31:51;99952.69;;;4.52;68.87
70909;BME280;58554;52.006;5.926;2022-12-08T09:34:17;99949.06;;;4.55;69.11
70909;BME280;58554;52.006;5.926;2022-12-08T09:36:46;99958.59;;;4.56;68.91
70909;BME280;58554;52.006;5.926;2022-12-08T09:39:13;99959.47;;;4.56;69.14
70909;BME280;58554;52.006;5.926;2022-12-08T09:41:44;99957.59;;;4.58;69.23
70909;BME280;58554;52.006;5.926;2022-12-08T09:44:42;99962.84;;;4.58;69.06
70909;BME280;58554;52.006;5.926;2022-12-08T09:47:21;99976.81;;;4.59;68.94
70909;BME280;58554;52.006;5.926;2022-12-08T09:49:56;99969.81;;;4.59;68.98
70909;BME280;58554;52.006;5.926;2022-12-08T09:52:32;99960.16;;;4.60;69.14
70909;BME280;58554;52.006;5.926;2022-12-08T09:55:15;99971.34;;;4.63;69.12
70909;BME280;58554;52.006;5.926;2022-12-08T09:57:59;99969.63;;;4.62;69.05
70909;BME280;58554;52.006;5.926;2022-12-08T10:00:28;99968.81;;;4.62;69.03
70909;BME280;58554;52.006;5.926;2022-12-08T10:02:55;99954.09;;;4.59;69.16
70909;BME280;58554;52.006;5.926;2022-12-08T10:05:23;99958.47;;;4.59;69.10
70909;BME280;58554;52.006;5.926;2022-12-08T10:08:02;99958.53;;;4.57;69.40
70909;BME280;58554;52.006;5.926;2022-12-08T10:10:40;99948.13;;;4.56;69.50
70909;BME280;58554;52.006;5.926;2022-12-08T10:13:19;99943.78;;;4.56;69.28
70909;BME280;58554;52.006;5.926;2022-12-08T10:15:58;99941.06;;;4.58;69.33
70909;BME280;58554;52.006;5.926;2022-12-08T10:18:37;99937.53;;;4.59;69.46
70909;BME280;58554;52.006;5.926;2022-12-08T10:21:14;99933.13;;;4.59;69.24
70909;BME280;58554;52.006;5.926;2022-12-08T10:23:49;99927.91;;;4.59;69.38
70909;BME280;58554;52.006;5.926;2022-12-08T10:26:20;99926.91;;;4.62;69.25
70909;BME280;58554;52.006;5.926;2022-12-08T10:28:47;99923.50;;;4.60;69.27
70909;BME280;58554;52.006;5.926;2022-12-08T10:31:16;99924.44;;;4.59;69.42
70909;BME280;58554;52.006;5.926;2022-12-08T10:33:47;99920.94;;;4.58;69.44
70909;BME280;58554;52.006;5.926;2022-12-08T10:36:20;99924.44;;;4.59;69.26
70909;BME280;58554;52.006;5.926;2022-12-08T10:38:49;99919.13;;;4.60;69.13
70909;BME280;58554;52.006;5.926;2022-12-08T10:41:15;99916.50;;;4.60;69.39
70909;BME280;58554;52.006;5.926;2022-12-08T10:43:43;99916.44;;;4.62;69.31
70909;BME280;58554;52.006;5.926;2022-12-08T10:46:15;99906.91;;;4.61;69.52
70909;BME280;58554;52.006;5.926;2022-12-08T10:48:50;99912.81;;;4.64;69.54
70909;BME280;58554;52.006;5.926;2022-12-08T10:51:28;99905.91;;;4.63;69.30
70909;BME280;58554;52.006;5.926;2022-12-08T10:54:03;99905.84;;;4.65;69.31
70909;BME280;58554;52.006;5.926;2022-12-08T10:56:31;99910.06;;;4.67;69.55
70909;BME280;58554;52.006;5.926;2022-12-08T10:59:17;99909.06;;;4.70;69.53
70909;BME280;58554;52.006;5.926;2022-12-08T11:01:46;99912.47;;;4.72;69.34
70909;BME280;58554;52.006;5.926;2022-12-08T11:04:17;99919.41;;;4.73;69.47
70909;BME280;58554;52.006;5.926;2022-12-08T11:06:46;99927.28;;;4.73;69.58
70909;BME280;58554;52.006;5.926;2022-12-08T11:09:34;99922.72;;;4.77;69.47
70909;BME280;58554;52.006;5.926;2022-12-08T11:12:12;99914.97;;;4.75;69.32
70909;BME280;58554;52.006;5.926;2022-12-08T11:14:49;99921.94;;;4.75;69.25
70909;BME280;58554;52.006;5.926;2022-12-08T11:17:24;99920.25;;;4.74;69.35
70909;BME280;58554;52.006;5.926;2022-12-08T11:19:57;99922.94;;;4.72;69.53
70909;BME280;58554;52.006;5.926;2022-12-08T11:22:28;99920.31;;;4.72;69.58
70909;BME280;58554;52.006;5.926;2022-12-08T11:25:07;99913.41;;;4.71;69.56
70909;BME280;58554;52.006;5.926;2022-12-08T11:27:36;99919.41;;;4.73;69.38
70909;BME280;58554;52.006;5.926;2022-12-08T11:30:14;99915.88;;;4.74;69.54
70909;BME280;58554;52.006;5.926;2022-12-08T11:32:46;99916.66;;;4.76;69.53
70909;BME280;58554;52.006;5.926;2022-12-08T11:35:23;99910.50;;;4.77;69.56
70909;BME280;58554;52.006;5.926;2022-12-08T11:37:56;99902.63;;;4.77;69.54
70909;BME280;58554;52.006;5.926;2022-12-08T11:40:35;99906.09;;;4.78;69.37
70909;BME280;58554;52.006;5.926;2022-12-08T11:43:11;99908.72;;;4.78;69.72
70909;BME280;58554;52.006;5.926;2022-12-08T11:45:42;99904.38;;;4.77;69.51
70909;BME280;58554;52.006;5.926;2022-12-08T11:48:13;99899.94;;;4.79;69.70
70909;BME280;58554;52.006;5.926;2022-12-08T11:50:48;99899.09;;;4.78;69.70
70909;BME280;58554;52.006;5.926;2022-12-08T11:53:25;99904.25;;;4.80;69.71
70909;BME280;58554;52.006;5.926;2022-12-08T11:56:12;99898.09;;;4.81;69.49
70909;BME280;58554;52.006;5.926;2022-12-08T11:58:47;99896.34;;;4.81;69.69
70909;BME280;58554;52.006;5.926;2022-12-08T12:01:20;99897.19;;;4.82;69.56
70909;BME280;58554;52.006;5.926;2022-12-08T12:03:54;99892.66;;;4.85;69.51
70909;BME280;58554;52.006;5.926;2022-12-08T12:09:50;99888.97;;;4.90;69.66
70909;BME280;58554;52.006;5.926;2022-12-08T12:12:43;99887.97;;;4.92;69.63
70909;BME280;58554;52.006;5.926;2022-12-08T12:15:46;99876.59;;;4.92;69.53
70909;BME280;58554;52.006;5.926;2022-12-08T12:18:37;99873.09;;;4.93;69.40
70909;BME280;58554;52.006;5.926;2022-12-08T12:21:11;99868.69;;;4.93;69.61
70909;BME280;58554;52.006;5.926;2022-12-08T12:23:46;99868.69;;;4.93;69.59
70909;BME280;58554;52.006;5.926;2022-12-08T12:26:20;99868.69;;;4.93;69.38
70909;BME280;58554;52.006;5.926;2022-12-08T12:28:57;99860.91;;;4.92;69.19
70909;BME280;58554;52.006;5.926;2022-12-08T12:31:30;99858.28;;;4.92;69.36
70909;BME280;58554;52.006;5.926;2022-12-08T12:34:05;99855.75;;;4.90;69.13
70909;BME280;58554;52.006;5.926;2022-12-08T12:36:49;99846.13;;;4.91;69.31
70909;BME280;58554;52.006;5.926;2022-12-08T12:39:22;99846.13;;;4.91;69.02
70909;BME280;58554;52.006;5.926;2022-12-08T12:41:54;99845.28;;;4.90;69.09
70909;BME280;58554;52.006;5.926;2022-12-08T12:44:40;99840.81;;;4.92;69.42
70909;BME280;58554;52.006;5.926;2022-12-08T12:47:12;99847.72;;;4.93;69.46
70909;BME280;58554;52.006;5.926;2022-12-08T12:50:11;99841.50;;;4.96;69.22
70909;BME280;58554;52.006;5.926;2022-12-08T12:52:42;99835.38;;;4.97;69.43
70909;BME280;58554;52.006;5.926;2022-12-08T12:58:36;99832.59;;;5.00;69.33
70909;BME280;58554;52.006;5.926;2022-12-08T13:04:12;99833.47;;;5.00;69.03
70909;BME280;58554;52.006;5.926;2022-12-08T13:06:45;99829.97;;;5.00;69.19
70909;BME280;58554;52.006;5.926;2022-12-08T13:09:22;99824.88;;;4.97;69.13
70909;BME280;58554;52.006;5.926;2022-12-08T13:11:58;99824.13;;;4.95;69.04
70909;BME280;58554;52.006;5.926;2022-12-08T13:14:32;99832.84;;;4.94;69.17
70909;BME280;58554;52.006;5.926;2022-12-08T13:17:05;99825.00;;;4.94;69.07
70909;BME280;58554;52.006;5.926;2022-12-08T13:19:38;99819.75;;;4.94;69.13
70909;BME280;58554;52.006;5.926;2022-12-08T13:25:51;99813.13;;;4.86;69.11
70909;BME280;58554;52.006;5.926;2022-12-08T13:29:04;99809.81;;;4.83;68.89
70909;BME280;58554;52.006;5.926;2022-12-08T13:31:47;99809.13;;;4.79;68.89
70909;BME280;58554;52.006;5.926;2022-12-08T13:34:19;99810.09;;;4.77;68.89
70909;BME280;58554;52.006;5.926;2022-12-08T13:37:16;99812.88;;;4.74;68.85
70909;BME280;58554;52.006;5.926;2022-12-08T13:39:52;99811.34;;;4.70;68.75
70909;BME280;58554;52.006;5.926;2022-12-08T13:42:29;99809.78;;;4.65;68.97
70909;BME280;58554;52.006;5.926;2022-12-08T13:45:04;99811.69;;;4.62;68.82
70909;BME280;58554;52.006;5.926;2022-12-08T13:47:44;99804.06;;;4.57;68.86